Fort Polk, LA

3:36 PM CDT on October 01, 2014 (GMT -0500)
RAWS VERNON LA US | Change Station
CLOSE
Current Station
Personal Weather Station
Location: Fort Polk, LA
Elevation: 350 ft
Nearby Weather Stations

Elev 350 ft 31.02 °N, 93.19 °W | Updated 37 minutes ago

Partly Cloudy
Partly Cloudy
89 °F
Feels Like 102 °F
N
3
Wind Variable Wind from NW
Gusts 7.0 mph

Today
High -- | Low -- °F
--% Chance of Precip.
Yesterday
High -- | Low -- °F
Precip. -- in
7:06 AM 6:58 PM
Waxing Crescent, 51% visible
Pressure 29.83 in
Visibility 10.0 miles
Clouds Scattered Clouds 2600 ft
Heat Index 102 °F
Dew Point 77 °F
Humidity 69%
Rainfall 0.00 in
Snow Depth Not available.
UV 5 out of 12
Pollen 7.30 out of 12
Air Quality Not available.
Flu Activity Not available.
SPECI KPOE 012018Z AUTO 18012KT 10SM SCT026 30/23 A2983 RMK AO2

More Conditions Fewer Conditions

Pressure 29.83 in
Visibility 10.0 miles
Clouds Scattered Clouds 2600 ft
Heat Index 102 °F
Dew Point 77 °F
Humidity 69%
Rainfall 0.00 in
Snow Depth Not available.
UV 5 out of 12
Pollen 7.30 out of 12
Air Quality Not available.
Flu Activity Not available.
SPECI KPOE 012018Z AUTO 18012KT 10SM SCT026 30/23 A2983 RMK AO2

More Conditions Fewer Conditions

10-Day Weather Forecast

Almanac

Astronomy

Oct. 01, 2014 Rise Set
Actual Time 7:06 AM CDT 6:58 PM CDT
Civil Twilight 6:42 AM CDT 7:22 PM CDT
Nautical Twilight 6:14 AM CDT 7:50 PM CDT
Astronomical Twilight 5:46 AM CDT 8:18 PM CDT
Moon 1:51 PM CDT No Moon Set
Length of Visible Light 12h 39m
Length of Day
11h 51m
Tomorrow will be 1m 51s shorter.
Waxing Crescent, 51% of the Moon is Illuminated
Today
Waxing Crescent
Oct 8
Full
Oct 15
Last Quarter
Oct 23
New
Oct 30
First Quarter

Today's Extremes

State Highs State Lows

Community

WunderPhotos

Upload Photos

1,758,037 photos uploaded!

WunderBlogs® & News

By Dr. Jeff Masters
Director of Meteorology, Weather Underground
By Kari Strenfel
Meteorologist, Weather Underground
By Christopher C. Burt
Weather Historian, Weather Underground
October 1, 2014
October 1, 2014
October 1, 2014

Nearby

Snow Depth

Station Depth Elevation
No new snow has been reported.

Earthquake Activity

City Distance Mag. Time & Date
No recent earthquake activity has been reported nearby.
Minimum magnitude displayed is 2.5.

Coastal Water Temperatures

Place Temperature
No Stations Reporting

Nearby Weather Stations